Time;durP1;ratioP1;P1;durP2;ratioP2;P2;SDS_P1;SDS_P2;PMS_P1;PMS_P2;Temp;Humidity;BMP_temperature;BMP_pressure;BME280_temperature;BME280_humidity;BME280_pressure;Samples;Min_cycle;Max_cycle;Signal;HPM_P1;HPM_P2
2024/03/08 00:00:51;;;;;;;8.60;7.63;;;9.90;72.80;;;;;;5008372;28;112565;-46
2024/03/08 00:03:17;;;;;;;10.65;8.18;;;9.80;73.40;;;;;;5008711;28;112825;-41
2024/03/08 00:05:42;;;;;;;9.52;8.00;;;9.80;73.30;;;;;;5007615;28;114412;-45
2024/03/08 00:08:09;;;;;;;9.57;8.15;;;9.80;73.50;;;;;;5007921;28;112839;-44
2024/03/08 00:10:35;;;;;;;10.15;8.70;;;9.80;73.30;;;;;;5008480;28;112811;-49
2024/03/08 00:13:03;;;;;;;8.88;7.50;;;9.80;73.40;;;;;;5008984;28;113140;-43
2024/03/08 00:15:29;;;;;;;8.90;8.00;;;9.80;73.30;;;;;;5007206;28;113753;-42
2024/03/08 00:17:55;;;;;;;9.38;8.25;;;9.80;73.50;;;;;;5007290;28;113763;-44
2024/03/08 00:20:20;;;;;;;8.15;7.35;;;9.80;73.40;;;;;;5008661;28;112706;-49
2024/03/08 00:22:46;;;;;;;10.50;8.13;;;9.70;73.60;;;;;;5007069;28;112724;-47
2024/03/08 00:25:12;;;;;;;8.30;7.47;;;9.80;73.30;;;;;;5007730;28;113331;-42
2024/03/08 00:27:38;;;;;;;8.57;6.93;;;9.80;73.10;;;;;;5007529;28;112627;-47
2024/03/08 00:30:05;;;;;;;8.60;7.70;;;9.70;73.00;;;;;;4994398;28;113155;-43
2024/03/08 00:32:31;;;;;;;9.25;7.30;;;9.70;73.20;;;;;;5008191;28;113112;-49
2024/03/08 00:34:57;;;;;;;8.30;7.18;;;9.60;73.50;;;;;;5007074;28;115729;-44
2024/03/08 00:37:23;;;;;;;8.63;7.13;;;9.60;73.20;;;;;;5007446;28;112852;-42
2024/03/08 00:39:52;;;;;;;10.57;8.27;;;9.60;73.20;;;;;;4995010;28;112716;-45
2024/03/08 00:42:19;;;;;;;12.23;9.25;;;9.70;73.20;;;;;;5008305;28;112822;-43
2024/03/08 00:44:45;;;;;;;9.32;8.07;;;9.60;72.90;;;;;;5007082;28;113158;-43
2024/03/08 00:47:11;;;;;;;8.52;7.20;;;9.60;73.20;;;;;;5006400;28;113672;-45
2024/03/08 00:49:37;;;;;;;9.15;7.20;;;9.60;73.00;;;;;;5006735;28;112795;-43
2024/03/08 00:52:07;;;;;;;7.63;6.82;;;9.70;73.00;;;;;;5007710;28;114447;-46
2024/03/08 00:54:34;;;;;;;8.05;7.15;;;9.60;73.10;;;;;;5006500;28;114468;-47
2024/03/08 00:57:02;;;;;;;7.85;7.15;;;9.70;72.90;;;;;;5006267;28;112617;-44
2024/03/08 00:59:34;;;;;;;8.10;7.13;;;9.70;72.90;;;;;;5007595;28;112817;-46
2024/03/08 01:02:00;;;;;;;9.63;7.03;;;9.70;73.00;;;;;;5008046;28;112742;-42
2024/03/08 01:04:28;;;;;;;8.38;6.90;;;9.50;73.60;;;;;;5006631;28;115953;-45
2024/03/08 01:06:56;;;;;;;8.70;7.53;;;9.50;73.60;;;;;;5004849;28;112741;-43
2024/03/08 01:09:22;;;;;;;8.07;7.28;;;9.60;73.50;;;;;;5004459;28;113642;-42
2024/03/08 01:11:49;;;;;;;7.78;6.95;;;9.70;72.80;;;;;;5003886;28;112705;-42
2024/03/08 01:14:15;;;;;;;9.80;7.07;;;9.80;72.70;;;;;;5000573;28;113187;-49
2024/03/08 01:16:40;;;;;;;8.15;7.18;;;9.70;72.80;;;;;;4988426;28;112593;-49
2024/03/08 01:19:06;;;;;;;9.48;7.13;;;9.60;73.00;;;;;;4987262;28;112646;-45
2024/03/08 01:21:32;;;;;;;7.53;6.82;;;9.60;73.20;;;;;;4987208;28;113566;-43
2024/03/08 01:23:58;;;;;;;10.27;6.70;;;9.40;73.60;;;;;;4995967;28;114479;-46
2024/03/08 01:26:24;;;;;;;8.52;7.63;;;9.50;73.60;;;;;;5005557;28;113716;-51
2024/03/08 01:28:50;;;;;;;9.00;7.20;;;9.40;73.50;;;;;;4990805;28;112811;-42
2024/03/08 01:31:15;;;;;;;8.57;7.47;;;9.50;73.50;;;;;;4990907;28;112819;-42
2024/03/08 01:33:42;;;;;;;8.70;7.03;;;9.50;73.60;;;;;;4994757;28;113812;-42
2024/03/08 01:36:08;;;;;;;8.35;7.55;;;9.40;73.70;;;;;;5009640;28;113823;-43
2024/03/08 01:38:34;;;;;;;7.68;6.80;;;9.50;73.90;;;;;;5011593;28;112687;-49
2024/03/08 01:40:59;;;;;;;7.50;6.75;;;9.40;74.00;;;;;;5010332;28;112774;-45
2024/03/08 01:43:28;;;;;;;8.55;6.88;;;9.40;74.00;;;;;;5008452;28;114642;-44
2024/03/08 01:46:01;;;;;;;7.60;6.90;;;9.40;73.90;;;;;;4989262;28;113728;-45
2024/03/08 01:48:29;;;;;;;7.50;6.78;;;9.40;74.00;;;;;;5004697;28;112919;-43
2024/03/08 01:50:57;;;;;;;7.32;6.25;;;9.40;73.90;;;;;;5010451;28;112926;-43
2024/03/08 01:53:24;;;;;;;6.95;6.25;;;9.40;73.80;;;;;;5009542;28;113287;-49
2024/03/08 01:55:51;;;;;;;6.82;6.20;;;9.40;73.60;;;;;;5007775;28;113859;-43
2024/03/08 01:58:20;;;;;;;6.88;6.18;;;9.40;73.60;;;;;;5010661;28;112852;-43
2024/03/08 02:00:49;;;;;;;6.57;5.85;;;9.30;73.70;;;;;;5010255;28;112686;-47
2024/03/08 02:03:18;;;;;;;5.65;5.10;;;9.30;73.70;;;;;;5007850;28;115309;-42
2024/03/08 02:05:43;;;;;;;6.63;5.43;;;9.30;73.50;;;;;;5009148;28;112783;-46
2024/03/08 02:08:14;;;;;;;5.90;5.32;;;9.20;73.80;;;;;;5010075;28;112573;-45
2024/03/08 02:10:41;;;;;;;5.93;5.32;;;9.30;73.80;;;;;;5010009;28;112658;-42
2024/03/08 02:13:07;;;;;;;4.93;4.53;;;9.30;73.50;;;;;;5008911;28;114498;-45
2024/03/08 02:15:56;;;;;;;5.15;4.65;;;9.30;73.60;;;;;;5008893;28;113765;-42
2024/03/08 02:18:23;;;;;;;5.50;4.80;;;9.30;73.40;;;;;;4989712;28;112722;-47
2024/03/08 02:20:52;;;;;;;4.60;4.20;;;9.40;73.40;;;;;;5003776;28;112714;-52
2024/03/08 02:23:19;;;;;;;4.90;4.40;;;9.40;72.50;;;;;;5008873;28;114344;-47
2024/03/08 02:25:46;;;;;;;4.32;3.92;;;9.30;72.50;;;;;;5008845;28;113903;-45
2024/03/08 02:28:12;;;;;;;4.80;4.22;;;9.40;72.00;;;;;;5010001;28;112622;-46
2024/03/08 02:30:38;;;;;;;4.13;3.75;;;9.30;72.00;;;;;;5010073;28;113087;-46
2024/03/08 02:33:11;;;;;;;4.43;4.03;;;9.20;72.10;;;;;;5008765;28;113329;-54
2024/03/08 02:35:36;;;;;;;;;;;9.20;72.20;;;;;;5008718;28;113700;-42
2024/03/08 02:38:05;;;;;;;4.28;3.88;;;9.20;72.10;;;;;;5011137;28;112540;-42
2024/03/08 02:40:32;;;;;;;4.60;3.92;;;9.20;71.80;;;;;;5010274;28;113084;-44
2024/03/08 02:42:58;;;;;;;4.55;3.50;;;9.20;71.40;;;;;;5008777;28;114513;-42
2024/03/08 02:45:24;;;;;;;3.80;3.28;;;9.30;71.60;;;;;;5008317;28;113771;-44
2024/03/08 02:47:50;;;;;;;3.47;3.17;;;9.20;71.20;;;;;;5009723;28;112777;-42
2024/03/08 02:50:16;;;;;;;3.28;2.97;;;9.10;71.50;;;;;;5009627;28;112902;-47
2024/03/08 02:52:46;;;;;;;3.30;3.00;;;9.10;71.90;;;;;;5008486;28;114840;-43
2024/03/08 02:55:15;;;;;;;3.25;3.05;;;9.10;71.80;;;;;;5008383;28;112781;-42
2024/03/08 02:57:41;;;;;;;3.20;2.90;;;9.10;70.60;;;;;;5009288;28;112742;-44
2024/03/08 03:00:10;;;;;;;3.00;2.70;;;9.10;71.40;;;;;;5008636;28;113642;-45
2024/03/08 03:02:37;;;;;;;2.95;2.72;;;9.00;71.50;;;;;;5008405;28;114807;-43
2024/03/08 03:05:05;;;;;;;2.85;2.65;;;8.90;71.60;;;;;;5008569;28;112685;-42
2024/03/08 03:07:33;;;;;;;3.72;2.80;;;8.90;71.90;;;;;;5009134;28;112950;-43
2024/03/08 03:10:00;;;;;;;2.90;2.70;;;8.90;72.50;;;;;;5009378;28;112707;-47
2024/03/08 03:12:29;;;;;;;3.45;3.05;;;8.90;72.40;;;;;;5007828;28;113705;-42
2024/03/08 03:14:56;;;;;;;2.72;2.53;;;8.80;72.50;;;;;;5008112;28;113173;-45
2024/03/08 03:17:23;;;;;;;2.97;2.78;;;8.80;71.90;;;;;;5009300;28;112753;-43
2024/03/08 03:19:49;;;;;;;2.78;2.50;;;8.70;72.80;;;;;;4995152;28;112698;-51
2024/03/08 03:22:15;;;;;;;5.28;3.28;;;8.60;73.60;;;;;;5008242;28;113330;-42
2024/03/08 03:24:42;;;;;;;2.75;2.55;;;8.60;73.80;;;;;;5007565;28;113739;-43
2024/03/08 03:27:10;;;;;;;2.88;2.55;;;8.70;73.90;;;;;;5008792;28;113801;-43
2024/03/08 03:29:45;;;;;;;3.72;2.67;;;8.70;73.80;;;;;;4994982;28;114256;-42
2024/03/08 03:32:14;;;;;;;3.13;2.47;;;8.70;73.10;;;;;;5007849;28;114534;-46
2024/03/08 03:34:40;;;;;;;3.20;2.80;;;8.60;73.90;;;;;;5007668;28;113913;-48
2024/03/08 03:37:08;;;;;;;3.05;2.60;;;8.70;74.00;;;;;;5009046;28;112556;-46
2024/03/08 03:39:34;;;;;;;2.85;2.60;;;8.60;74.70;;;;;;5009106;28;112862;-48
2024/03/08 03:42:03;;;;;;;2.53;2.33;;;8.60;74.60;;;;;;5007873;28;113883;-43
2024/03/08 03:44:29;;;;;;;3.03;2.72;;;8.60;75.40;;;;;;5007776;28;112847;-44
2024/03/08 03:46:55;;;;;;;2.80;2.60;;;8.40;75.80;;;;;;5008710;28;112553;-42
2024/03/08 03:49:21;;;;;;;2.95;2.67;;;8.30;76.40;;;;;;5007999;28;112876;-47
2024/03/08 03:51:47;;;;;;;2.60;2.40;;;8.40;76.40;;;;;;5007333;28;114327;-44
2024/03/08 03:54:13;;;;;;;2.30;2.10;;;8.30;76.60;;;;;;5007325;28;112756;-45
2024/03/08 03:56:41;;;;;;;2.72;2.53;;;8.30;77.00;;;;;;5008575;28;112696;-43
2024/03/08 03:59:07;;;;;;;2.78;2.58;;;8.30;76.40;;;;;;5008840;28;113263;-47
2024/03/08 04:01:34;;;;;;;2.72;2.53;;;8.30;77.10;;;;;;5007548;28;113247;-44
2024/03/08 04:03:59;;;;;;;2.70;2.50;;;8.30;76.90;;;;;;5007447;28;112822;-42
2024/03/08 04:06:25;;;;;;;2.90;2.70;;;8.20;76.60;;;;;;5008762;28;112704;-45
2024/03/08 04:08:51;;;;;;;2.88;2.67;;;8.20;76.60;;;;;;5008202;28;112797;-47
2024/03/08 04:11:16;;;;;;;3.60;2.72;;;8.20;76.50;;;;;;5007393;28;114860;-43
2024/03/08 04:13:43;;;;;;;3.05;2.80;;;8.10;77.20;;;;;;5007145;28;113362;-42
2024/03/08 04:16:11;;;;;;;4.15;2.85;;;8.10;77.60;;;;;;5008140;28;112872;-42
2024/03/08 04:18:37;;;;;;;3.85;2.63;;;8.20;77.60;;;;;;4999028;28;112783;-46
2024/03/08 04:21:07;;;;;;;2.90;2.70;;;8.20;77.00;;;;;;5001103;28;114848;-43
2024/03/08 04:23:36;;;;;;;3.50;3.10;;;8.10;77.20;;;;;;5007120;28;113234;-45
2024/03/08 04:26:05;;;;;;;3.15;2.85;;;8.00;77.40;;;;;;5007835;28;112692;-42
2024/03/08 04:28:31;;;;;;;3.95;3.20;;;8.00;77.60;;;;;;5008143;28;113072;-45
2024/03/08 04:30:57;;;;;;;5.05;3.42;;;8.00;77.30;;;;;;5007309;28;113428;-45
2024/03/08 04:33:23;;;;;;;3.85;3.20;;;7.90;77.70;;;;;;5007116;28;112929;-47
2024/03/08 04:35:49;;;;;;;3.65;3.20;;;8.00;77.90;;;;;;5008031;28;112694;-44
2024/03/08 04:38:15;;;;;;;3.40;3.10;;;8.00;77.90;;;;;;5006163;28;113023;-43
2024/03/08 04:40:41;;;;;;;3.40;3.10;;;7.90;77.50;;;;;;5006579;28;114506;-44
2024/03/08 04:43:08;;;;;;;3.47;3.17;;;8.00;77.50;;;;;;5006773;28;112815;-46
2024/03/08 04:45:34;;;;;;;3.40;3.10;;;8.10;77.60;;;;;;5007885;28;112547;-45
2024/03/08 04:48:00;;;;;;;2.80;2.60;;;8.00;77.50;;;;;;5008217;28;112691;-42
2024/03/08 04:50:28;;;;;;;3.38;3.03;;;8.10;77.40;;;;;;5006418;28;114839;-45
2024/03/08 04:52:54;;;;;;;3.85;3.05;;;8.10;77.20;;;;;;5006893;28;113002;-49
2024/03/08 04:55:21;;;;;;;2.92;2.63;;;8.00;77.50;;;;;;5007716;28;112610;-42
2024/03/08 04:57:47;;;;;;;3.10;2.75;;;8.10;77.50;;;;;;5007912;28;112744;-43
2024/03/08 05:00:14;;;;;;;3.10;2.80;;;8.10;77.10;;;;;;5006750;28;113228;-43
2024/03/08 05:02:41;;;;;;;3.20;2.90;;;8.10;77.40;;;;;;5008956;28;114295;-47
2024/03/08 05:05:12;;;;;;;3.35;3.05;;;8.10;77.10;;;;;;5010863;28;112713;-46
2024/03/08 05:07:39;;;;;;;3.05;2.75;;;8.20;76.80;;;;;;5011537;28;112964;-44
2024/03/08 05:10:06;;;;;;;3.05;2.85;;;8.20;76.10;;;;;;5010277;28;114410;-49
2024/03/08 05:12:35;;;;;;;4.32;3.20;;;8.20;76.80;;;;;;5009763;28;114337;-50
2024/03/08 05:15:01;;;;;;;2.63;2.42;;;8.20;76.60;;;;;;5011030;28;112489;-47
2024/03/08 05:17:27;;;;;;;2.88;2.67;;;8.20;76.20;;;;;;5010847;28;112771;-46
2024/03/08 05:19:53;;;;;;;3.17;2.83;;;8.20;75.80;;;;;;4990306;28;113787;-44
2024/03/08 05:22:19;;;;;;;3.10;2.85;;;8.20;76.30;;;;;;5001955;28;112576;-45
2024/03/08 05:24:45;;;;;;;2.60;2.40;;;8.20;76.80;;;;;;5011032;28;112665;-50
2024/03/08 05:27:10;;;;;;;3.08;2.50;;;8.20;76.50;;;;;;5010875;28;112957;-45
2024/03/08 05:29:37;;;;;;;2.88;2.67;;;8.10;76.60;;;;;;5009676;28;113403;-47
2024/03/08 05:32:03;;;;;;;3.13;2.70;;;8.30;76.90;;;;;;5009705;28;114112;-42
2024/03/08 05:34:30;;;;;;;3.33;2.83;;;8.20;76.90;;;;;;5010946;28;112679;-48
2024/03/08 05:36:55;;;;;;;3.10;2.80;;;8.20;77.40;;;;;;4996822;28;112879;-43
2024/03/08 05:39:21;;;;;;;3.10;2.40;;;8.10;77.40;;;;;;5010086;28;114097;-46
2024/03/08 05:41:47;;;;;;;3.22;2.38;;;8.20;77.30;;;;;;5009609;28;112629;-43
2024/03/08 05:44:13;;;;;;;2.97;2.70;;;8.20;77.20;;;;;;5010817;28;112745;-48
2024/03/08 05:46:39;;;;;;;3.00;2.72;;;8.10;77.00;;;;;;5010549;28;112698;-54
2024/03/08 05:49:06;;;;;;;3.03;2.47;;;8.20;77.50;;;;;;5009609;28;113410;-42
2024/03/08 05:51:36;;;;;;;3.10;2.90;;;8.10;76.70;;;;;;5009077;28;113048;-43
2024/03/08 05:54:06;;;;;;;3.88;3.47;;;8.20;76.90;;;;;;5010326;28;112604;-45
2024/03/08 05:56:32;;;;;;;3.63;3.33;;;8.20;77.20;;;;;;5010310;28;113099;-51
2024/03/08 05:58:58;;;;;;;3.90;3.50;;;8.40;77.00;;;;;;5009517;28;113698;-45
2024/03/08 06:01:27;;;;;;;2.90;2.60;;;8.30;76.80;;;;;;5008907;28;113056;-45
2024/03/08 06:03:55;;;;;;;3.30;3.00;;;8.30;76.70;;;;;;5010274;28;112918;-43
2024/03/08 06:06:22;;;;;;;2.85;2.65;;;8.30;76.90;;;;;;5009797;28;112980;-42
2024/03/08 06:08:49;;;;;;;3.55;2.92;;;8.30;76.60;;;;;;5009211;28;113257;-42
2024/03/08 06:11:19;;;;;;;3.10;2.90;;;8.30;76.60;;;;;;5008790;28;112649;-42
2024/03/08 06:13:45;;;;;;;3.10;2.80;;;8.20;76.10;;;;;;5009218;28;112619;-43
2024/03/08 06:16:11;;;;;;;3.50;3.20;;;8.20;76.50;;;;;;5009109;28;112660;-43
2024/03/08 06:18:37;;;;;;;3.30;3.00;;;8.20;76.70;;;;;;5004192;28;113281;-41
2024/03/08 06:21:06;;;;;;;4.05;3.65;;;8.30;77.00;;;;;;4997303;28;113570;-45
2024/03/08 06:30:42;;;;;;;5.22;4.22;;;8.30;76.90;;;;;;5035935;27;112824;-42
2024/03/08 06:33:07;;;;;;;5.10;4.43;;;8.30;75.60;;;;;;5025278;27;112664;-44
2024/03/08 06:35:33;;;;;;;6.05;4.80;;;8.30;76.00;;;;;;5026412;27;113295;-49
2024/03/08 06:37:59;;;;;;;5.68;5.07;;;8.30;76.90;;;;;;5025693;27;114362;-45
2024/03/08 06:40:24;;;;;;;6.35;5.10;;;8.20;77.20;;;;;;5037345;27;112742;-49
2024/03/08 06:42:51;;;;;;;5.95;4.80;;;8.30;78.00;;;;;;5025173;27;112761;-46
2024/03/08 06:45:20;;;;;;;5.28;4.60;;;8.40;78.00;;;;;;5024853;27;112714;-48
2024/03/08 06:47:47;;;;;;;6.32;4.75;;;8.30;78.50;;;;;;5024093;27;113207;-44
2024/03/08 06:50:15;;;;;;;5.18;4.68;;;8.30;78.80;;;;;;5023888;27;114150;-42
2024/03/08 06:52:42;;;;;;;4.63;4.22;;;8.40;78.80;;;;;;5025236;27;112944;-43
2024/03/08 06:55:11;;;;;;;5.25;4.55;;;8.50;78.60;;;;;;5025191;27;113011;-43
2024/03/08 06:57:40;;;;;;;4.85;4.45;;;8.50;78.10;;;;;;5023451;27;113248;-42
2024/03/08 07:00:09;;;;;;;14.85;11.50;;;8.40;78.40;;;;;;5023771;27;113691;-51
2024/03/08 07:02:35;;;;;;;10.00;7.75;;;8.40;78.70;;;;;;5023335;27;112524;-43
2024/03/08 07:05:01;;;;;;;6.00;5.47;;;8.50;78.60;;;;;;5024840;28;112715;-42
2024/03/08 07:07:27;;;;;;;5.57;5.07;;;8.30;79.10;;;;;;5023404;27;114417;-44
2024/03/08 07:09:54;;;;;;;5.18;4.68;;;8.30;79.50;;;;;;5023831;27;112544;-51
2024/03/08 07:12:20;;;;;;;6.03;5.35;;;8.30;79.50;;;;;;5024793;27;112985;-44
2024/03/08 07:14:46;;;;;;;6.05;5.45;;;8.30;79.80;;;;;;5024689;27;112727;-42
2024/03/08 07:17:12;;;;;;;6.07;5.47;;;8.50;79.80;;;;;;5023546;27;113301;-42
2024/03/08 07:19:38;;;;;;;5.50;5.00;;;8.60;79.60;;;;;;5007973;27;113658;-45
2024/03/08 07:22:08;;;;;;;6.20;5.60;;;8.50;80.10;;;;;;5024623;27;112848;-45
2024/03/08 07:25:10;;;;;;;6.63;5.50;;;8.40;80.00;;;;;;5024356;27;112818;-42
2024/03/08 07:27:36;;;;;;;6.72;6.07;;;8.50;79.60;;;;;;5023033;27;114406;-47
2024/03/08 07:30:02;;;;;;;6.55;5.68;;;8.40;80.10;;;;;;5022882;27;112806;-42
2024/03/08 07:32:29;;;;;;;6.90;5.82;;;8.30;80.20;;;;;;5024497;27;112783;-48
2024/03/08 07:34:56;;;;;;;6.25;5.68;;;8.30;80.60;;;;;;5024261;27;112766;-53
2024/03/08 07:37:22;;;;;;;6.35;5.75;;;8.30;80.10;;;;;;5023135;27;114466;-42
2024/03/08 07:39:47;;;;;;;9.90;6.60;;;8.50;79.70;;;;;;5021897;27;112628;-44
2024/03/08 07:42:13;;;;;;;6.80;5.95;;;8.40;79.50;;;;;;5010686;28;114352;-48
2024/03/08 07:44:39;;;;;;;5.97;5.47;;;8.40;79.20;;;;;;4998455;28;112719;-42
2024/03/08 07:47:09;;;;;;;7.20;5.85;;;8.30;79.20;;;;;;4994628;28;116694;-45
2024/03/08 07:49:37;;;;;;;7.00;6.30;;;8.30;79.10;;;;;;4989329;28;112883;-47
2024/03/08 07:52:07;;;;;;;7.65;6.38;;;8.40;78.80;;;;;;4990676;28;112705;-49
2024/03/08 07:54:34;;;;;;;7.63;6.65;;;8.40;79.00;;;;;;4994708;28;112681;-43
2024/03/08 07:57:02;;;;;;;7.63;6.82;;;8.40;78.60;;;;;;4989648;28;113204;-49
2024/03/08 07:59:29;;;;;;;9.18;7.25;;;8.40;78.80;;;;;;4993141;28;114282;-46
2024/03/08 08:01:55;;;;;;;8.40;7.10;;;8.60;79.20;;;;;;5001194;28;112638;-46
2024/03/08 08:04:24;;;;;;;7.60;6.90;;;8.50;78.50;;;;;;5000484;28;113167;-43
2024/03/08 08:06:51;;;;;;;7.55;6.80;;;8.60;78.80;;;;;;5001254;28;114559;-44
2024/03/08 08:09:28;;;;;;;7.20;6.50;;;8.50;79.20;;;;;;4998460;28;113335;-45
2024/03/08 08:11:54;;;;;;;8.13;7.13;;;8.50;79.10;;;;;;4989086;28;112690;-42
2024/03/08 08:14:21;;;;;;;7.97;7.18;;;8.70;79.30;;;;;;4989925;28;112801;-44
2024/03/08 08:16:48;;;;;;;8.05;7.25;;;8.80;79.30;;;;;;4997061;28;113121;-49
2024/03/08 08:19:15;;;;;;;7.65;6.95;;;8.70;79.40;;;;;;4995265;28;112715;-45
2024/03/08 08:21:41;;;;;;;8.60;7.70;;;8.80;79.70;;;;;;5010305;28;113023;-43
2024/03/08 08:24:07;;;;;;;8.70;7.80;;;8.80;79.90;;;;;;5010196;28;112689;-45
2024/03/08 08:26:33;;;;;;;11.90;9.30;;;8.70;80.30;;;;;;5009183;28;113223;-46
2024/03/08 08:28:59;;;;;;;11.45;9.88;;;8.70;80.50;;;;;;5008750;28;113753;-43
2024/03/08 08:31:26;;;;;;;11.57;10.15;;;8.80;79.90;;;;;;5008775;28;112776;-48
2024/03/08 08:33:58;;;;;;;10.68;9.32;;;8.70;80.00;;;;;;5008764;28;112793;-53
2024/03/08 08:36:24;;;;;;;8.93;8.05;;;8.80;79.80;;;;;;5008818;28;114558;-42
2024/03/08 08:38:50;;;;;;;9.55;8.65;;;8.80;79.20;;;;;;4994051;28;113754;-52
2024/03/08 08:41:17;;;;;;;9.10;8.25;;;8.80;79.20;;;;;;4990102;28;112856;-49
2024/03/08 08:43:45;;;;;;;9.13;8.23;;;8.90;79.00;;;;;;4989996;28;113124;-49
2024/03/08 08:46:14;;;;;;;9.73;8.73;;;8.80;78.40;;;;;;4988919;28;113193;-42
2024/03/08 08:48:45;;;;;;;11.80;8.77;;;8.80;78.50;;;;;;4988734;28;114120;-42
2024/03/08 08:51:15;;;;;;;9.43;8.52;;;8.70;79.10;;;;;;4989691;28;112910;-46
2024/03/08 08:53:42;;;;;;;10.25;7.75;;;8.60;77.80;;;;;;4988926;28;113888;-44
2024/03/08 08:56:09;;;;;;;12.20;8.77;;;8.40;77.80;;;;;;4988724;28;113160;-43
2024/03/08 08:58:35;;;;;;;8.73;7.82;;;8.60;78.20;;;;;;4988547;28;112686;-48
2024/03/08 09:01:01;;;;;;;8.80;8.00;;;8.70;77.20;;;;;;4989959;28;112882;-42
2024/03/08 09:03:29;;;;;;;10.75;9.25;;;8.50;77.20;;;;;;4989379;28;113031;-42
2024/03/08 09:05:56;;;;;;;10.40;8.90;;;8.70;77.90;;;;;;4988591;28;113338;-50
2024/03/08 09:08:23;;;;;;;9.48;8.48;;;8.80;77.00;;;;;;4988226;28;113700;-43
2024/03/08 09:10:48;;;;;;;10.93;9.02;;;8.60;77.50;;;;;;4989437;28;113282;-42
2024/03/08 09:13:14;;;;;;;10.02;9.02;;;8.50;78.10;;;;;;4989702;28;113000;-46
2024/03/08 09:15:40;;;;;;;9.73;8.73;;;8.40;78.00;;;;;;4991373;28;113316;-42
2024/03/08 09:18:06;;;;;;;11.23;8.70;;;8.30;78.10;;;;;;5007301;28;113631;-42
2024/03/08 09:20:32;;;;;;;10.45;9.40;;;8.50;77.70;;;;;;5009675;28;112855;-41
2024/03/08 09:22:58;;;;;;;11.40;9.30;;;8.50;77.70;;;;;;5009613;28;112992;-44
2024/03/08 09:25:23;;;;;;;10.65;9.60;;;8.60;77.20;;;;;;5008327;28;113287;-42
2024/03/08 09:27:49;;;;;;;10.85;9.85;;;8.50;78.10;;;;;;5008329;28;112804;-41
2024/03/08 09:30:15;;;;;;;10.30;9.30;;;8.50;78.00;;;;;;5009277;28;112622;-42
2024/03/08 09:32:43;;;;;;;13.55;9.60;;;8.40;78.10;;;;;;5009122;28;112726;-42
2024/03/08 09:35:09;;;;;;;11.27;9.75;;;8.30;79.00;;;;;;5007836;28;114824;-43
2024/03/08 09:37:35;;;;;;;10.30;9.40;;;8.40;78.30;;;;;;4998080;28;112626;-46
2024/03/08 09:40:04;;;;;;;10.88;9.68;;;8.50;78.20;;;;;;4989036;28;112844;-44
2024/03/08 09:42:31;;;;;;;10.55;9.27;;;8.30;78.40;;;;;;4988990;28;112823;-42
2024/03/08 09:44:58;;;;;;;11.40;10.20;;;8.20;78.30;;;;;;4987589;28;115113;-46
2024/03/08 09:47:29;;;;;;;11.00;9.98;;;8.20;79.20;;;;;;4986688;28;112846;-46
2024/03/08 09:49:55;;;;;;;11.20;10.10;;;8.20;79.20;;;;;;4987704;28;112542;-43
2024/03/08 09:52:21;;;;;;;11.20;9.82;;;8.20;79.40;;;;;;4987351;28;112728;-42
2024/03/08 09:54:46;;;;;;;11.45;10.27;;;8.10;79.60;;;;;;4987530;28;114384;-42
2024/03/08 09:57:12;;;;;;;11.95;10.40;;;8.20;79.30;;;;;;4986034;28;114073;-43
2024/03/08 10:02:04;;;;;;;11.82;10.68;;;8.00;79.70;;;;;;4990359;28;112771;-44
2024/03/08 10:04:33;;;;;;;12.43;11.23;;;7.90;79.90;;;;;;4985886;28;114875;-43
2024/03/08 10:07:00;;;;;;;12.13;10.93;;;8.00;80.50;;;;;;4992435;28;112605;-51
2024/03/08 10:09:27;;;;;;;13.00;11.70;;;8.30;79.90;;;;;;4987391;28;112973;-51
2024/03/08 10:11:59;;;;;;;13.63;12.32;;;8.20;79.50;;;;;;4994458;28;112976;-46
2024/03/08 10:14:26;;;;;;;15.85;12.32;;;8.10;80.00;;;;;;4986589;28;113129;-43
2024/03/08 10:16:52;;;;;;;13.77;12.30;;;8.10;80.70;;;;;;4985919;28;113725;-44
2024/03/08 10:19:18;;;;;;;14.55;13.05;;;8.10;80.50;;;;;;5000883;28;112593;-43
2024/03/08 10:21:49;;;;;;;13.15;11.80;;;8.00;81.10;;;;;;4987954;28;113085;-42
2024/03/08 10:24:14;;;;;;;13.65;12.35;;;8.10;80.50;;;;;;4985945;28;114612;-49
2024/03/08 10:26:43;;;;;;;14.05;11.73;;;8.30;80.60;;;;;;4986106;28;112540;-44
2024/03/08 10:29:09;;;;;;;12.93;11.13;;;8.40;80.10;;;;;;4986865;28;112637;-45
2024/03/08 10:31:35;;;;;;;13.05;11.73;;;8.60;79.70;;;;;;4986756;28;113031;-42
2024/03/08 10:34:02;;;;;;;13.52;12.10;;;8.70;79.50;;;;;;4995653;28;114895;-52
2024/03/08 10:36:28;;;;;;;13.48;12.07;;;8.60;79.40;;;;;;4985596;28;112761;-43
2024/03/08 10:38:56;;;;;;;13.23;11.27;;;8.70;79.10;;;;;;4987389;28;112795;-44
2024/03/08 10:41:26;;;;;;;12.68;11.38;;;8.60;79.10;;;;;;4986669;28;113182;-49
2024/03/08 10:44:14;;;;;;;11.65;10.55;;;8.70;79.60;;;;;;4991890;28;114856;-49
2024/03/08 10:46:42;;;;;;;12.30;11.00;;;8.60;78.70;;;;;;4985554;28;113761;-46
2024/03/08 10:49:17;;;;;;;11.40;10.23;;;8.60;78.60;;;;;;4986676;28;112981;-47
2024/03/08 10:51:44;;;;;;;12.32;11.18;;;8.80;78.10;;;;;;4986779;28;113194;-42
2024/03/08 10:54:11;;;;;;;11.40;10.30;;;8.70;78.20;;;;;;4985659;28;113742;-42
2024/03/08 10:56:39;;;;;;;12.18;10.90;;;8.80;77.40;;;;;;4985503;28;113070;-47
2024/03/08 10:59:08;;;;;;;12.82;11.00;;;8.70;77.40;;;;;;4988522;28;112540;-50
2024/03/08 11:01:34;;;;;;;11.45;10.27;;;8.60;77.80;;;;;;4992180;28;112929;-44
2024/03/08 11:04:04;;;;;;;12.15;10.60;;;8.80;76.60;;;;;;4986632;28;113242;-47
2024/03/08 11:06:37;;;;;;;11.48;10.23;;;8.70;77.00;;;;;;4985342;28;113986;-45
2024/03/08 11:09:13;;;;;;;10.93;9.90;;;8.80;76.90;;;;;;4986427;28;113283;-45
2024/03/08 11:11:42;;;;;;;10.88;9.77;;;8.70;77.00;;;;;;4987283;28;112627;-44
2024/03/08 11:14:44;;;;;;;10.98;9.88;;;8.90;76.00;;;;;;4986227;28;114332;-45
2024/03/08 11:17:09;;;;;;;11.10;10.00;;;8.90;75.20;;;;;;4989565;28;113379;-50
2024/03/08 11:19:35;;;;;;;12.00;10.05;;;8.90;75.10;;;;;;5007053;28;112625;-49
2024/03/08 11:22:03;;;;;;;12.25;10.93;;;8.90;74.80;;;;;;5009816;28;112656;-50
2024/03/08 11:24:39;;;;;;;16.10;13.27;;;8.90;76.10;;;;;;5008752;28;115034;-54
2024/03/08 11:27:06;;;;;;;18.23;14.15;;;9.10;75.70;;;;;;4999256;28;114154;-49
2024/03/08 11:29:37;;;;;;;11.43;10.32;;;8.90;74.80;;;;;;4989035;28;112662;-42
2024/03/08 11:32:15;;;;;;;11.95;10.75;;;8.80;75.00;;;;;;4989936;28;112994;-47
2024/03/08 11:34:51;;;;;;;11.10;9.95;;;8.80;75.40;;;;;;4989583;28;113294;-43
2024/03/08 11:37:18;;;;;;;12.20;10.45;;;8.80;74.10;;;;;;4990228;28;113803;-43
2024/03/08 11:39:49;;;;;;;11.90;10.68;;;8.90;74.60;;;;;;4997425;28;113879;-47
2024/03/08 11:42:17;;;;;;;11.13;10.02;;;9.00;74.50;;;;;;4992360;28;113017;-43
2024/03/08 11:44:44;;;;;;;10.88;9.52;;;9.00;73.70;;;;;;5000416;28;114825;-45
2024/03/08 11:47:14;;;;;;;11.52;10.35;;;9.00;74.00;;;;;;4995448;28;113839;-44
2024/03/08 11:49:44;;;;;;;11.50;10.23;;;9.00;73.60;;;;;;4994274;28;112713;-42
2024/03/08 11:52:13;;;;;;;11.98;10.77;;;9.10;73.90;;;;;;4992289;28;112985;-44
2024/03/08 11:54:39;;;;;;;12.05;10.48;;;9.10;74.00;;;;;;4996401;28;114539;-42
2024/03/08 11:57:05;;;;;;;12.55;10.57;;;9.00;73.70;;;;;;4993436;28;113255;-43
2024/03/08 11:59:32;;;;;;;12.85;11.50;;;8.80;74.00;;;;;;4994376;28;112961;-45
2024/03/08 12:02:05;;;;;;;11.45;10.07;;;8.80;74.90;;;;;;4991469;28;112854;-43
2024/03/08 12:04:32;;;;;;;11.55;10.35;;;8.80;73.90;;;;;;4994784;28;113297;-49
2024/03/08 12:07:02;;;;;;;12.55;10.52;;;8.80;73.80;;;;;;5000041;28;112603;-46
2024/03/08 12:09:28;;;;;;;12.52;10.77;;;9.00;73.00;;;;;;4998351;28;113156;-42
2024/03/08 12:11:54;;;;;;;12.18;10.52;;;9.30;73.70;;;;;;5001378;28;112910;-46
2024/03/08 12:14:20;;;;;;;10.70;9.60;;;9.10;72.60;;;;;;5008046;28;113636;-47
2024/03/08 12:16:48;;;;;;;12.27;10.73;;;9.10;72.20;;;;;;5000894;28;112645;-43
2024/03/08 12:19:14;;;;;;;12.80;11.15;;;9.00;73.10;;;;;;5003399;28;112498;-53
2024/03/08 12:21:48;;;;;;;10.88;9.68;;;9.10;73.30;;;;;;5002969;28;112692;-49
2024/03/08 12:24:19;;;;;;;12.10;10.90;;;9.10;72.70;;;;;;4988870;28;114329;-44
2024/03/08 12:26:48;;;;;;;11.48;10.25;;;9.10;73.10;;;;;;4988023;28;112795;-49
2024/03/08 12:29:24;;;;;;;11.48;10.23;;;9.10;72.20;;;;;;4988800;28;112600;-44
2024/03/08 12:32:00;;;;;;;11.68;10.48;;;9.00;72.20;;;;;;4989165;28;112721;-44
2024/03/08 12:34:28;;;;;;;11.98;9.90;;;9.00;72.60;;;;;;5004148;28;116235;-44
2024/03/08 12:36:54;;;;;;;13.15;11.85;;;9.00;72.80;;;;;;5008704;28;112892;-47
2024/03/08 12:39:27;;;;;;;12.63;11.25;;;9.10;72.40;;;;;;5012642;28;112799;-44
2024/03/08 12:41:54;;;;;;;13.18;11.75;;;9.00;71.90;;;;;;5008645;28;112984;-41
2024/03/08 12:44:24;;;;;;;12.07;10.73;;;8.90;72.00;;;;;;5007467;28;115016;-41
2024/03/08 12:46:51;;;;;;;12.50;10.23;;;8.80;72.30;;;;;;5007561;28;114859;-41
2024/03/08 12:49:22;;;;;;;12.52;10.85;;;8.90;72.60;;;;;;5008235;28;112519;-41
2024/03/08 12:51:48;;;;;;;11.88;10.68;;;8.90;72.00;;;;;;5007415;28;113734;-43